sensor_id;sensor_type;location;lat;lon;timestamp;P1;durP1;ratioP1;P2;durP2;ratioP2
9934;SDS011;5006;41.828;23.478;2023-04-24T00:00:11;6.35;;;5.53;;
9934;SDS011;5006;41.828;23.478;2023-04-24T00:01:17;5.95;;;5.30;;
9934;SDS011;5006;41.828;23.478;2023-04-24T00:02:23;8.63;;;5.32;;
9934;SDS011;5006;41.828;23.478;2023-04-24T00:03:28;6.07;;;5.45;;
9934;SDS011;5006;41.828;23.478;2023-04-24T00:04:34;5.45;;;4.93;;
9934;SDS011;5006;41.828;23.478;2023-04-24T00:05:39;6.20;;;5.60;;
9934;SDS011;5006;41.828;23.478;2023-04-24T00:06:45;6.43;;;5.30;;
9934;SDS011;5006;41.828;23.478;2023-04-24T00:07:54;5.72;;;5.10;;
9934;SDS011;5006;41.828;23.478;2023-04-24T00:09:00;5.63;;;5.03;;
9934;SDS011;5006;41.828;23.478;2023-04-24T00:10:06;6.20;;;5.70;;
9934;SDS011;5006;41.828;23.478;2023-04-24T00:11:13;6.22;;;5.63;;
9934;SDS011;5006;41.828;23.478;2023-04-24T00:12:18;6.50;;;5.90;;
9934;SDS011;5006;41.828;23.478;2023-04-24T00:13:24;6.05;;;5.50;;
9934;SDS011;5006;41.828;23.478;2023-04-24T00:14:30;5.90;;;5.40;;
9934;SDS011;5006;41.828;23.478;2023-04-24T00:15:36;8.45;;;5.40;;
9934;SDS011;5006;41.828;23.478;2023-04-24T00:16:41;5.93;;;5.38;;
9934;SDS011;5006;41.828;23.478;2023-04-24T00:17:47;5.75;;;5.25;;
9934;SDS011;5006;41.828;23.478;2023-04-24T00:18:52;5.68;;;5.10;;
9934;SDS011;5006;41.828;23.478;2023-04-24T00:19:58;5.65;;;5.15;;
9934;SDS011;5006;41.828;23.478;2023-04-24T00:21:03;7.97;;;5.20;;
9934;SDS011;5006;41.828;23.478;2023-04-24T00:22:10;5.97;;;5.47;;
9934;SDS011;5006;41.828;23.478;2023-04-24T00:23:19;5.72;;;5.18;;
9934;SDS011;5006;41.828;23.478;2023-04-24T00:24:25;6.22;;;5.70;;
9934;SDS011;5006;41.828;23.478;2023-04-24T00:25:30;7.32;;;5.60;;
9934;SDS011;5006;41.828;23.478;2023-04-24T00:26:37;5.57;;;5.07;;
9934;SDS011;5006;41.828;23.478;2023-04-24T00:27:43;6.20;;;5.65;;
9934;SDS011;5006;41.828;23.478;2023-04-24T00:28:49;6.50;;;5.47;;
9934;SDS011;5006;41.828;23.478;2023-04-24T00:29:54;5.28;;;4.88;;
9934;SDS011;5006;41.828;23.478;2023-04-24T00:31:00;6.97;;;5.40;;
9934;SDS011;5006;41.828;23.478;2023-04-24T00:32:06;5.80;;;5.30;;
9934;SDS011;5006;41.828;23.478;2023-04-24T00:33:12;5.50;;;5.00;;
9934;SDS011;5006;41.828;23.478;2023-04-24T00:34:18;6.03;;;5.53;;
9934;SDS011;5006;41.828;23.478;2023-04-24T00:35:25;6.22;;;5.65;;
9934;SDS011;5006;41.828;23.478;2023-04-24T00:36:30;7.10;;;5.85;;
9934;SDS011;5006;41.828;23.478;2023-04-24T00:37:36;7.85;;;5.40;;
9934;SDS011;5006;41.828;23.478;2023-04-24T00:38:42;6.45;;;5.85;;
9934;SDS011;5006;41.828;23.478;2023-04-24T00:39:49;7.18;;;5.60;;
9934;SDS011;5006;41.828;23.478;2023-04-24T00:40:54;5.88;;;5.38;;
9934;SDS011;5006;41.828;23.478;2023-04-24T00:42:00;5.80;;;5.30;;
9934;SDS011;5006;41.828;23.478;2023-04-24T00:43:06;5.85;;;5.25;;
9934;SDS011;5006;41.828;23.478;2023-04-24T00:44:13;6.43;;;5.65;;
9934;SDS011;5006;41.828;23.478;2023-04-24T00:45:19;6.50;;;5.93;;
9934;SDS011;5006;41.828;23.478;2023-04-24T00:46:25;6.45;;;5.90;;
9934;SDS011;5006;41.828;23.478;2023-04-24T00:47:31;6.63;;;6.05;;
9934;SDS011;5006;41.828;23.478;2023-04-24T00:48:38;6.65;;;5.68;;
9934;SDS011;5006;41.828;23.478;2023-04-24T00:49:47;6.35;;;5.75;;
9934;SDS011;5006;41.828;23.478;2023-04-24T00:50:53;6.40;;;5.80;;
9934;SDS011;5006;41.828;23.478;2023-04-24T00:51:58;6.95;;;5.72;;
9934;SDS011;5006;41.828;23.478;2023-04-24T00:53:04;7.03;;;5.50;;
9934;SDS011;5006;41.828;23.478;2023-04-24T00:54:11;6.60;;;5.95;;
9934;SDS011;5006;41.828;23.478;2023-04-24T00:55:17;6.30;;;5.68;;
9934;SDS011;5006;41.828;23.478;2023-04-24T00:56:22;7.15;;;6.28;;
9934;SDS011;5006;41.828;23.478;2023-04-24T00:57:29;6.75;;;6.15;;
9934;SDS011;5006;41.828;23.478;2023-04-24T00:58:35;7.07;;;6.03;;
9934;SDS011;5006;41.828;23.478;2023-04-24T00:59:41;6.63;;;5.95;;
9934;SDS011;5006;41.828;23.478;2023-04-24T01:00:46;7.93;;;5.78;;
9934;SDS011;5006;41.828;23.478;2023-04-24T01:01:54;6.78;;;5.90;;
9934;SDS011;5006;41.828;23.478;2023-04-24T01:03:00;6.32;;;5.72;;
9934;SDS011;5006;41.828;23.478;2023-04-24T01:04:11;6.70;;;6.05;;
9934;SDS011;5006;41.828;23.478;2023-04-24T01:05:17;6.38;;;5.78;;
9934;SDS011;5006;41.828;23.478;2023-04-24T01:06:24;6.93;;;6.25;;
9934;SDS011;5006;41.828;23.478;2023-04-24T01:07:32;6.88;;;6.28;;
9934;SDS011;5006;41.828;23.478;2023-04-24T01:08:39;6.93;;;6.32;;
9934;SDS011;5006;41.828;23.478;2023-04-24T01:09:48;7.00;;;6.32;;
9934;SDS011;5006;41.828;23.478;2023-04-24T01:10:56;6.35;;;5.78;;
9934;SDS011;5006;41.828;23.478;2023-04-24T01:12:02;6.53;;;5.93;;
9934;SDS011;5006;41.828;23.478;2023-04-24T01:13:09;7.25;;;6.32;;
9934;SDS011;5006;41.828;23.478;2023-04-24T01:14:15;7.15;;;6.45;;
9934;SDS011;5006;41.828;23.478;2023-04-24T01:15:21;7.45;;;6.75;;
9934;SDS011;5006;41.828;23.478;2023-04-24T01:16:26;7.10;;;5.85;;
9934;SDS011;5006;41.828;23.478;2023-04-24T01:17:32;8.57;;;6.63;;
9934;SDS011;5006;41.828;23.478;2023-04-24T01:18:37;6.35;;;5.75;;
9934;SDS011;5006;41.828;23.478;2023-04-24T01:19:43;7.10;;;6.50;;
9934;SDS011;5006;41.828;23.478;2023-04-24T01:20:49;7.63;;;6.85;;
9934;SDS011;5006;41.828;23.478;2023-04-24T01:21:58;11.18;;;7.38;;
9934;SDS011;5006;41.828;23.478;2023-04-24T01:23:09;8.02;;;7.30;;
9934;SDS011;5006;41.828;23.478;2023-04-24T01:24:15;7.15;;;6.53;;
9934;SDS011;5006;41.828;23.478;2023-04-24T01:25:20;8.75;;;6.80;;
9934;SDS011;5006;41.828;23.478;2023-04-24T01:26:26;7.30;;;6.30;;
9934;SDS011;5006;41.828;23.478;2023-04-24T01:27:31;7.47;;;6.70;;
9934;SDS011;5006;41.828;23.478;2023-04-24T01:28:37;7.10;;;6.43;;
9934;SDS011;5006;41.828;23.478;2023-04-24T01:29:43;6.88;;;6.28;;
9934;SDS011;5006;41.828;23.478;2023-04-24T01:30:50;7.65;;;6.47;;
9934;SDS011;5006;41.828;23.478;2023-04-24T01:31:55;8.65;;;7.05;;
9934;SDS011;5006;41.828;23.478;2023-04-24T01:33:03;7.15;;;6.47;;
9934;SDS011;5006;41.828;23.478;2023-04-24T01:34:09;7.63;;;6.88;;
9934;SDS011;5006;41.828;23.478;2023-04-24T01:35:16;8.05;;;6.80;;
9934;SDS011;5006;41.828;23.478;2023-04-24T01:36:22;7.60;;;6.90;;
9934;SDS011;5006;41.828;23.478;2023-04-24T01:37:31;7.68;;;6.88;;
9934;SDS011;5006;41.828;23.478;2023-04-24T01:38:38;7.18;;;6.57;;
9934;SDS011;5006;41.828;23.478;2023-04-24T01:39:45;7.43;;;6.72;;
9934;SDS011;5006;41.828;23.478;2023-04-24T01:40:50;8.05;;;7.35;;
9934;SDS011;5006;41.828;23.478;2023-04-24T01:41:56;7.63;;;6.97;;
9934;SDS011;5006;41.828;23.478;2023-04-24T01:43:02;7.38;;;6.78;;
9934;SDS011;5006;41.828;23.478;2023-04-24T01:44:08;7.28;;;6.57;;
9934;SDS011;5006;41.828;23.478;2023-04-24T01:45:13;7.43;;;6.72;;
9934;SDS011;5006;41.828;23.478;2023-04-24T01:46:19;7.07;;;6.47;;
9934;SDS011;5006;41.828;23.478;2023-04-24T01:47:24;8.57;;;7.50;;
9934;SDS011;5006;41.828;23.478;2023-04-24T01:48:30;8.18;;;7.38;;
9934;SDS011;5006;41.828;23.478;2023-04-24T01:49:36;7.93;;;7.18;;
9934;SDS011;5006;41.828;23.478;2023-04-24T01:50:43;7.75;;;6.95;;
9934;SDS011;5006;41.828;23.478;2023-04-24T01:51:50;8.48;;;7.70;;
9934;SDS011;5006;41.828;23.478;2023-04-24T01:52:57;8.93;;;7.97;;
9934;SDS011;5006;41.828;23.478;2023-04-24T01:54:03;8.68;;;7.82;;
9934;SDS011;5006;41.828;23.478;2023-04-24T01:55:10;8.20;;;7.50;;
9934;SDS011;5006;41.828;23.478;2023-04-24T01:56:16;8.35;;;7.55;;
9934;SDS011;5006;41.828;23.478;2023-04-24T01:57:22;8.35;;;7.63;;
9934;SDS011;5006;41.828;23.478;2023-04-24T01:58:27;8.52;;;7.75;;
9934;SDS011;5006;41.828;23.478;2023-04-24T01:59:34;8.88;;;7.97;;
9934;SDS011;5006;41.828;23.478;2023-04-24T02:00:40;9.15;;;8.25;;
9934;SDS011;5006;41.828;23.478;2023-04-24T02:01:46;8.57;;;7.78;;
9934;SDS011;5006;41.828;23.478;2023-04-24T02:02:51;8.40;;;7.60;;
9934;SDS011;5006;41.828;23.478;2023-04-24T02:03:57;7.55;;;6.90;;
9934;SDS011;5006;41.828;23.478;2023-04-24T02:05:02;8.50;;;7.57;;
9934;SDS011;5006;41.828;23.478;2023-04-24T02:06:09;8.90;;;7.47;;
9934;SDS011;5006;41.828;23.478;2023-04-24T02:07:14;8.60;;;7.80;;
9934;SDS011;5006;41.828;23.478;2023-04-24T02:08:20;7.75;;;7.05;;
9934;SDS011;5006;41.828;23.478;2023-04-24T02:09:29;7.95;;;7.18;;
9934;SDS011;5006;41.828;23.478;2023-04-24T02:10:35;7.70;;;7.00;;
9934;SDS011;5006;41.828;23.478;2023-04-24T02:11:40;7.72;;;6.93;;
9934;SDS011;5006;41.828;23.478;2023-04-24T02:12:46;8.70;;;7.30;;
9934;SDS011;5006;41.828;23.478;2023-04-24T02:13:51;8.48;;;7.68;;
9934;SDS011;5006;41.828;23.478;2023-04-24T02:14:57;7.47;;;6.78;;
9934;SDS011;5006;41.828;23.478;2023-04-24T02:16:02;7.85;;;7.15;;
9934;SDS011;5006;41.828;23.478;2023-04-24T02:17:09;7.65;;;7.05;;
9934;SDS011;5006;41.828;23.478;2023-04-24T02:18:16;8.13;;;7.35;;
9934;SDS011;5006;41.828;23.478;2023-04-24T02:19:22;8.43;;;7.63;;
9934;SDS011;5006;41.828;23.478;2023-04-24T02:20:29;8.45;;;7.53;;
9934;SDS011;5006;41.828;23.478;2023-04-24T02:21:35;8.20;;;7.50;;
9934;SDS011;5006;41.828;23.478;2023-04-24T02:22:40;9.63;;;7.03;;
9934;SDS011;5006;41.828;23.478;2023-04-24T02:23:46;7.68;;;6.95;;
9934;SDS011;5006;41.828;23.478;2023-04-24T02:24:53;7.93;;;7.20;;
9934;SDS011;5006;41.828;23.478;2023-04-24T02:25:59;8.27;;;7.38;;
9934;SDS011;5006;41.828;23.478;2023-04-24T02:27:04;7.35;;;6.75;;
9934;SDS011;5006;41.828;23.478;2023-04-24T02:28:11;7.38;;;6.68;;
9934;SDS011;5006;41.828;23.478;2023-04-24T02:29:16;8.50;;;7.70;;
9934;SDS011;5006;41.828;23.478;2023-04-24T02:30:22;8.20;;;7.40;;
9934;SDS011;5006;41.828;23.478;2023-04-24T02:31:27;7.65;;;7.05;;
9934;SDS011;5006;41.828;23.478;2023-04-24T02:32:33;7.55;;;6.78;;
9934;SDS011;5006;41.828;23.478;2023-04-24T02:33:38;8.45;;;7.65;;
9934;SDS011;5006;41.828;23.478;2023-04-24T02:34:44;8.57;;;7.38;;
9934;SDS011;5006;41.828;23.478;2023-04-24T02:35:51;8.30;;;7.40;;
9934;SDS011;5006;41.828;23.478;2023-04-24T02:36:56;7.75;;;7.15;;
9934;SDS011;5006;41.828;23.478;2023-04-24T02:38:02;8.00;;;7.20;;
9934;SDS011;5006;41.828;23.478;2023-04-24T02:39:07;8.32;;;7.40;;
9934;SDS011;5006;41.828;23.478;2023-04-24T02:40:14;8.25;;;7.45;;
9934;SDS011;5006;41.828;23.478;2023-04-24T02:41:19;8.15;;;7.38;;
9934;SDS011;5006;41.828;23.478;2023-04-24T02:42:26;8.20;;;7.40;;
9934;SDS011;5006;41.828;23.478;2023-04-24T02:43:31;8.20;;;7.30;;
9934;SDS011;5006;41.828;23.478;2023-04-24T02:44:38;7.85;;;7.10;;
9934;SDS011;5006;41.828;23.478;2023-04-24T02:45:43;7.57;;;6.88;;
9934;SDS011;5006;41.828;23.478;2023-04-24T02:46:49;7.57;;;6.93;;
9934;SDS011;5006;41.828;23.478;2023-04-24T02:47:55;9.00;;;7.05;;
9934;SDS011;5006;41.828;23.478;2023-04-24T02:49:00;7.95;;;7.25;;
9934;SDS011;5006;41.828;23.478;2023-04-24T02:50:08;8.27;;;7.47;;
9934;SDS011;5006;41.828;23.478;2023-04-24T02:51:14;7.82;;;7.13;;
9934;SDS011;5006;41.828;23.478;2023-04-24T02:52:20;7.80;;;7.10;;
9934;SDS011;5006;41.828;23.478;2023-04-24T02:53:25;8.15;;;7.38;;
9934;SDS011;5006;41.828;23.478;2023-04-24T02:54:31;9.27;;;7.57;;
9934;SDS011;5006;41.828;23.478;2023-04-24T02:55:38;7.88;;;7.18;;
9934;SDS011;5006;41.828;23.478;2023-04-24T02:56:44;7.15;;;6.55;;
9934;SDS011;5006;41.828;23.478;2023-04-24T02:57:49;7.78;;;7.07;;
9934;SDS011;5006;41.828;23.478;2023-04-24T02:58:55;8.93;;;7.13;;
9934;SDS011;5006;41.828;23.478;2023-04-24T03:00:00;7.82;;;6.72;;
9934;SDS011;5006;41.828;23.478;2023-04-24T03:01:08;8.25;;;7.13;;
9934;SDS011;5006;41.828;23.478;2023-04-24T03:02:14;8.13;;;7.43;;
9934;SDS011;5006;41.828;23.478;2023-04-24T03:03:21;8.32;;;7.53;;
9934;SDS011;5006;41.828;23.478;2023-04-24T03:04:27;8.25;;;7.45;;
9934;SDS011;5006;41.828;23.478;2023-04-24T03:05:33;7.80;;;7.05;;
9934;SDS011;5006;41.828;23.478;2023-04-24T03:06:38;8.40;;;7.15;;
9934;SDS011;5006;41.828;23.478;2023-04-24T03:07:44;7.32;;;6.60;;
9934;SDS011;5006;41.828;23.478;2023-04-24T03:08:50;7.55;;;6.85;;
9934;SDS011;5006;41.828;23.478;2023-04-24T03:09:56;7.82;;;7.03;;
9934;SDS011;5006;41.828;23.478;2023-04-24T03:11:04;7.03;;;6.43;;
9934;SDS011;5006;41.828;23.478;2023-04-24T03:12:10;7.90;;;6.95;;
9934;SDS011;5006;41.828;23.478;2023-04-24T03:13:17;8.20;;;7.45;;
9934;SDS011;5006;41.828;23.478;2023-04-24T03:14:23;7.93;;;7.18;;
9934;SDS011;5006;41.828;23.478;2023-04-24T03:15:28;8.27;;;7.57;;
9934;SDS011;5006;41.828;23.478;2023-04-24T03:16:34;8.88;;;8.18;;
9934;SDS011;5006;41.828;23.478;2023-04-24T03:17:39;9.23;;;8.40;;
9934;SDS011;5006;41.828;23.478;2023-04-24T03:18:45;8.65;;;7.78;;
9934;SDS011;5006;41.828;23.478;2023-04-24T03:19:50;8.50;;;7.70;;
9934;SDS011;5006;41.828;23.478;2023-04-24T03:20:56;8.77;;;7.97;;
9934;SDS011;5006;41.828;23.478;2023-04-24T03:22:01;9.02;;;8.05;;
9934;SDS011;5006;41.828;23.478;2023-04-24T03:23:09;8.82;;;8.02;;
9934;SDS011;5006;41.828;23.478;2023-04-24T03:24:15;10.05;;;9.15;;
9934;SDS011;5006;41.828;23.478;2023-04-24T03:25:22;9.98;;;9.00;;
9934;SDS011;5006;41.828;23.478;2023-04-24T03:26:28;10.60;;;9.43;;
9934;SDS011;5006;41.828;23.478;2023-04-24T03:27:55;10.82;;;9.82;;
9934;SDS011;5006;41.828;23.478;2023-04-24T03:29:16;10.98;;;10.07;;
9934;SDS011;5006;41.828;23.478;2023-04-24T03:30:22;10.60;;;9.50;;
9934;SDS011;5006;41.828;23.478;2023-04-24T03:31:33;10.70;;;9.70;;
9934;SDS011;5006;41.828;23.478;2023-04-24T03:32:39;10.50;;;9.27;;
9934;SDS011;5006;41.828;23.478;2023-04-24T03:33:45;9.68;;;8.57;;
9934;SDS011;5006;41.828;23.478;2023-04-24T03:34:51;9.48;;;8.57;;
9934;SDS011;5006;41.828;23.478;2023-04-24T03:35:56;9.05;;;8.25;;
9934;SDS011;5006;41.828;23.478;2023-04-24T03:37:03;8.88;;;8.07;;
9934;SDS011;5006;41.828;23.478;2023-04-24T03:38:11;8.68;;;7.82;;
9934;SDS011;5006;41.828;23.478;2023-04-24T03:39:45;8.68;;;7.88;;
9934;SDS011;5006;41.828;23.478;2023-04-24T03:40:53;8.38;;;7.68;;
9934;SDS011;5006;41.828;23.478;2023-04-24T03:42:27;8.50;;;7.70;;
9934;SDS011;5006;41.828;23.478;2023-04-24T03:43:34;8.77;;;7.97;;
9934;SDS011;5006;41.828;23.478;2023-04-24T03:44:40;9.02;;;8.23;;
9934;SDS011;5006;41.828;23.478;2023-04-24T03:45:46;7.97;;;7.28;;
9934;SDS011;5006;41.828;23.478;2023-04-24T03:46:52;8.25;;;7.55;;
9934;SDS011;5006;41.828;23.478;2023-04-24T03:48:00;8.07;;;7.25;;
9934;SDS011;5006;41.828;23.478;2023-04-24T03:49:05;8.50;;;7.70;;
9934;SDS011;5006;41.828;23.478;2023-04-24T03:50:15;8.73;;;7.93;;
9934;SDS011;5006;41.828;23.478;2023-04-24T03:51:21;8.57;;;7.78;;
9934;SDS011;5006;41.828;23.478;2023-04-24T03:52:31;8.45;;;7.65;;
9934;SDS011;5006;41.828;23.478;2023-04-24T03:53:36;8.38;;;7.57;;
9934;SDS011;5006;41.828;23.478;2023-04-24T03:54:42;8.82;;;8.02;;
9934;SDS011;5006;41.828;23.478;2023-04-24T03:55:47;8.55;;;7.72;;
9934;SDS011;5006;41.828;23.478;2023-04-24T03:56:53;9.85;;;8.77;;
9934;SDS011;5006;41.828;23.478;2023-04-24T03:58:00;8.10;;;7.30;;
9934;SDS011;5006;41.828;23.478;2023-04-24T03:59:06;8.38;;;7.57;;
9934;SDS011;5006;41.828;23.478;2023-04-24T04:00:12;8.73;;;7.88;;
9934;SDS011;5006;41.828;23.478;2023-04-24T04:01:19;9.25;;;8.32;;
9934;SDS011;5006;41.828;23.478;2023-04-24T04:02:30;8.77;;;7.88;;
9934;SDS011;5006;41.828;23.478;2023-04-24T04:03:36;8.85;;;8.05;;
9934;SDS011;5006;41.828;23.478;2023-04-24T04:04:41;8.80;;;8.00;;
9934;SDS011;5006;41.828;23.478;2023-04-24T04:05:48;9.35;;;8.55;;
9934;SDS011;5006;41.828;23.478;2023-04-24T04:06:54;8.65;;;7.85;;
9934;SDS011;5006;41.828;23.478;2023-04-24T04:08:00;8.75;;;7.95;;
9934;SDS011;5006;41.828;23.478;2023-04-24T04:09:06;8.48;;;7.68;;
9934;SDS011;5006;41.828;23.478;2023-04-24T04:10:11;9.13;;;8.32;;
9934;SDS011;5006;41.828;23.478;2023-04-24T04:11:17;8.80;;;8.10;;
9934;SDS011;5006;41.828;23.478;2023-04-24T04:12:23;9.10;;;8.30;;
9934;SDS011;5006;41.828;23.478;2023-04-24T04:13:30;9.20;;;8.30;;
9934;SDS011;5006;41.828;23.478;2023-04-24T04:14:36;9.55;;;8.55;;
9934;SDS011;5006;41.828;23.478;2023-04-24T04:15:42;9.68;;;8.68;;
9934;SDS011;5006;41.828;23.478;2023-04-24T04:16:48;9.18;;;8.40;;
9934;SDS011;5006;41.828;23.478;2023-04-24T04:17:55;8.70;;;7.90;;
9934;SDS011;5006;41.828;23.478;2023-04-24T04:19:01;8.98;;;8.27;;
9934;SDS011;5006;41.828;23.478;2023-04-24T04:20:08;8.98;;;8.07;;
9934;SDS011;5006;41.828;23.478;2023-04-24T04:21:15;9.07;;;8.30;;
9934;SDS011;5006;41.828;23.478;2023-04-24T04:22:22;11.75;;;9.00;;
9934;SDS011;5006;41.828;23.478;2023-04-24T04:23:29;8.85;;;8.07;;
9934;SDS011;5006;41.828;23.478;2023-04-24T04:24:51;9.13;;;8.32;;
9934;SDS011;5006;41.828;23.478;2023-04-24T04:26:00;9.30;;;8.50;;
9934;SDS011;5006;41.828;23.478;2023-04-24T04:27:16;9.57;;;8.68;;
9934;SDS011;5006;41.828;23.478;2023-04-24T04:28:39;9.73;;;8.70;;
9934;SDS011;5006;41.828;23.478;2023-04-24T04:29:44;9.52;;;8.63;;
9934;SDS011;5006;41.828;23.478;2023-04-24T04:30:53;9.63;;;8.75;;
9934;SDS011;5006;41.828;23.478;2023-04-24T04:31:59;10.20;;;9.30;;
9934;SDS011;5006;41.828;23.478;2023-04-24T04:33:05;9.25;;;8.45;;
9934;SDS011;5006;41.828;23.478;2023-04-24T04:34:12;9.43;;;8.63;;
9934;SDS011;5006;41.828;23.478;2023-04-24T04:35:19;9.38;;;8.57;;
9934;SDS011;5006;41.828;23.478;2023-04-24T04:36:24;10.00;;;9.10;;
9934;SDS011;5006;41.828;23.478;2023-04-24T04:37:38;9.02;;;8.23;;
9934;SDS011;5006;41.828;23.478;2023-04-24T04:39:07;9.30;;;8.50;;
9934;SDS011;5006;41.828;23.478;2023-04-24T04:40:30;9.50;;;8.60;;
9934;SDS011;5006;41.828;23.478;2023-04-24T04:41:40;8.98;;;8.07;;
9934;SDS011;5006;41.828;23.478;2023-04-24T04:42:48;9.18;;;8.35;;
9934;SDS011;5006;41.828;23.478;2023-04-24T04:43:54;9.27;;;8.38;;
9934;SDS011;5006;41.828;23.478;2023-04-24T04:45:04;9.30;;;8.43;;
9934;SDS011;5006;41.828;23.478;2023-04-24T04:46:21;9.52;;;8.73;;
9934;SDS011;5006;41.828;23.478;2023-04-24T04:47:41;9.50;;;8.60;;
9934;SDS011;5006;41.828;23.478;2023-04-24T04:48:47;10.38;;;9.35;;
9934;SDS011;5006;41.828;23.478;2023-04-24T04:49:53;11.93;;;8.82;;
9934;SDS011;5006;41.828;23.478;2023-04-24T04:51:02;10.45;;;9.27;;
9934;SDS011;5006;41.828;23.478;2023-04-24T04:52:07;8.68;;;7.85;;
9934;SDS011;5006;41.828;23.478;2023-04-24T04:53:13;9.52;;;8.55;;
9934;SDS011;5006;41.828;23.478;2023-04-24T04:54:20;9.68;;;8.48;;
9934;SDS011;5006;41.828;23.478;2023-04-24T04:55:26;9.95;;;9.00;;
9934;SDS011;5006;41.828;23.478;2023-04-24T04:56:49;11.40;;;10.35;;
9934;SDS011;5006;41.828;23.478;2023-04-24T04:57:56;16.65;;;14.95;;
9934;SDS011;5006;41.828;23.478;2023-04-24T04:59:03;18.55;;;16.60;;
9934;SDS011;5006;41.828;23.478;2023-04-24T05:00:10;22.42;;;18.15;;
9934;SDS011;5006;41.828;23.478;2023-04-24T05:01:24;17.00;;;15.32;;
9934;SDS011;5006;41.828;23.478;2023-04-24T05:02:33;14.95;;;13.38;;
9934;SDS011;5006;41.828;23.478;2023-04-24T05:03:38;13.23;;;11.95;;
9934;SDS011;5006;41.828;23.478;2023-04-24T05:04:47;12.27;;;11.07;;
9934;SDS011;5006;41.828;23.478;2023-04-24T05:05:52;12.52;;;11.05;;
9934;SDS011;5006;41.828;23.478;2023-04-24T05:06:58;13.35;;;10.30;;
9934;SDS011;5006;41.828;23.478;2023-04-24T05:08:07;10.60;;;9.68;;
9934;SDS011;5006;41.828;23.478;2023-04-24T05:09:13;11.15;;;10.05;;
9934;SDS011;5006;41.828;23.478;2023-04-24T05:10:28;10.98;;;9.98;;
9934;SDS011;5006;41.828;23.478;2023-04-24T05:11:34;10.88;;;9.88;;
9934;SDS011;5006;41.828;23.478;2023-04-24T05:12:41;10.93;;;9.95;;
9934;SDS011;5006;41.828;23.478;2023-04-24T05:13:46;11.68;;;9.93;;
9934;SDS011;5006;41.828;23.478;2023-04-24T05:14:58;11.70;;;10.60;;
9934;SDS011;5006;41.828;23.478;2023-04-24T05:16:04;12.93;;;10.98;;
9934;SDS011;5006;41.828;23.478;2023-04-24T05:17:11;12.02;;;11.02;;
9934;SDS011;5006;41.828;23.478;2023-04-24T05:18:18;11.82;;;10.63;;
9934;SDS011;5006;41.828;23.478;2023-04-24T05:19:23;12.20;;;11.05;;
9934;SDS011;5006;41.828;23.478;2023-04-24T05:20:29;13.18;;;11.18;;
9934;SDS011;5006;41.828;23.478;2023-04-24T05:21:34;11.90;;;10.80;;
9934;SDS011;5006;41.828;23.478;2023-04-24T05:22:40;11.95;;;10.75;;
9934;SDS011;5006;41.828;23.478;2023-04-24T05:23:45;12.23;;;10.90;;
9934;SDS011;5006;41.828;23.478;2023-04-24T05:24:56;16.67;;;15.05;;
9934;SDS011;5006;41.828;23.478;2023-04-24T05:26:22;17.30;;;15.57;;
9934;SDS011;5006;41.828;23.478;2023-04-24T05:27:28;16.80;;;15.10;;
9934;SDS011;5006;41.828;23.478;2023-04-24T05:28:33;16.80;;;15.07;;
9934;SDS011;5006;41.828;23.478;2023-04-24T05:29:45;17.75;;;15.93;;
9934;SDS011;5006;41.828;23.478;2023-04-24T05:30:53;23.73;;;21.20;;
9934;SDS011;5006;41.828;23.478;2023-04-24T05:31:59;27.15;;;23.05;;
9934;SDS011;5006;41.828;23.478;2023-04-24T05:33:07;29.92;;;26.35;;
9934;SDS011;5006;41.828;23.478;2023-04-24T05:34:14;28.27;;;23.85;;
9934;SDS011;5006;41.828;23.478;2023-04-24T05:35:23;34.08;;;27.88;;
9934;SDS011;5006;41.828;23.478;2023-04-24T05:36:29;30.00;;;26.05;;
9934;SDS011;5006;41.828;23.478;2023-04-24T05:37:35;30.70;;;26.33;;
9934;SDS011;5006;41.828;23.478;2023-04-24T05:38:41;28.73;;;24.92;;
9934;SDS011;5006;41.828;23.478;2023-04-24T05:39:47;29.60;;;26.17;;
9934;SDS011;5006;41.828;23.478;2023-04-24T05:40:53;33.00;;;28.52;;
9934;SDS011;5006;41.828;23.478;2023-04-24T05:41:58;32.92;;;29.45;;
9934;SDS011;5006;41.828;23.478;2023-04-24T05:43:05;26.88;;;23.40;;
9934;SDS011;5006;41.828;23.478;2023-04-24T05:44:11;33.13;;;29.55;;
9934;SDS011;5006;41.828;23.478;2023-04-24T05:45:17;37.53;;;32.15;;
9934;SDS011;5006;41.828;23.478;2023-04-24T05:46:23;34.53;;;30.15;;
9934;SDS011;5006;41.828;23.478;2023-04-24T05:47:29;35.40;;;31.48;;
9934;SDS011;5006;41.828;23.478;2023-04-24T05:48:36;41.72;;;35.28;;
9934;SDS011;5006;41.828;23.478;2023-04-24T05:49:42;42.88;;;36.63;;
9934;SDS011;5006;41.828;23.478;2023-04-24T05:50:48;43.05;;;37.13;;
9934;SDS011;5006;41.828;23.478;2023-04-24T05:51:53;46.00;;;39.75;;
9934;SDS011;5006;41.828;23.478;2023-04-24T05:53:00;46.22;;;40.17;;
9934;SDS011;5006;41.828;23.478;2023-04-24T05:54:11;42.42;;;37.95;;
9934;SDS011;5006;41.828;23.478;2023-04-24T05:55:17;44.95;;;39.15;;
9934;SDS011;5006;41.828;23.478;2023-04-24T05:56:22;42.08;;;36.60;;
9934;SDS011;5006;41.828;23.478;2023-04-24T05:57:29;39.88;;;35.60;;
9934;SDS011;5006;41.828;23.478;2023-04-24T05:58:40;39.45;;;35.00;;
9934;SDS011;5006;41.828;23.478;2023-04-24T05:59:47;39.80;;;35.50;;
9934;SDS011;5006;41.828;23.478;2023-04-24T06:00:53;39.40;;;35.13;;
9934;SDS011;5006;41.828;23.478;2023-04-24T06:02:01;37.67;;;33.75;;
9934;SDS011;5006;41.828;23.478;2023-04-24T06:03:08;34.80;;;31.13;;
9934;SDS011;5006;41.828;23.478;2023-04-24T06:04:13;36.95;;;31.40;;
9934;SDS011;5006;41.828;23.478;2023-04-24T06:05:19;34.22;;;30.48;;
9934;SDS011;5006;41.828;23.478;2023-04-24T06:06:24;33.38;;;29.73;;
9934;SDS011;5006;41.828;23.478;2023-04-24T06:07:31;33.20;;;29.80;;
9934;SDS011;5006;41.828;23.478;2023-04-24T06:08:39;34.03;;;30.42;;
9934;SDS011;5006;41.828;23.478;2023-04-24T06:09:46;31.50;;;28.30;;
9934;SDS011;5006;41.828;23.478;2023-04-24T06:10:52;33.45;;;29.98;;
9934;SDS011;5006;41.828;23.478;2023-04-24T06:11:59;34.60;;;30.98;;
9934;SDS011;5006;41.828;23.478;2023-04-24T06:13:13;33.20;;;28.38;;
9934;SDS011;5006;41.828;23.478;2023-04-24T06:14:28;28.77;;;25.75;;
9934;SDS011;5006;41.828;23.478;2023-04-24T06:15:56;31.05;;;26.85;;
9934;SDS011;5006;41.828;23.478;2023-04-24T06:17:15;32.50;;;27.85;;
9934;SDS011;5006;41.828;23.478;2023-04-24T06:18:21;30.17;;;26.98;;
9934;SDS011;5006;41.828;23.478;2023-04-24T06:19:27;24.65;;;22.15;;
9934;SDS011;5006;41.828;23.478;2023-04-24T06:20:34;24.67;;;22.17;;
9934;SDS011;5006;41.828;23.478;2023-04-24T06:21:40;23.77;;;20.80;;
9934;SDS011;5006;41.828;23.478;2023-04-24T06:22:45;24.52;;;22.08;;
9934;SDS011;5006;41.828;23.478;2023-04-24T06:23:51;22.33;;;19.98;;
9934;SDS011;5006;41.828;23.478;2023-04-24T06:24:56;23.30;;;20.83;;
9934;SDS011;5006;41.828;23.478;2023-04-24T06:26:02;23.10;;;20.70;;
9934;SDS011;5006;41.828;23.478;2023-04-24T06:27:10;21.52;;;19.30;;
9934;SDS011;5006;41.828;23.478;2023-04-24T06:28:19;18.83;;;16.95;;
9934;SDS011;5006;41.828;23.478;2023-04-24T06:29:24;19.63;;;17.73;;
9934;SDS011;5006;41.828;23.478;2023-04-24T06:30:30;20.70;;;18.60;;
9934;SDS011;5006;41.828;23.478;2023-04-24T06:31:36;20.33;;;18.23;;
9934;SDS011;5006;41.828;23.478;2023-04-24T06:32:44;24.42;;;21.70;;
9934;SDS011;5006;41.828;23.478;2023-04-24T06:33:49;22.80;;;20.60;;
9934;SDS011;5006;41.828;23.478;2023-04-24T06:34:55;24.25;;;19.88;;
9934;SDS011;5006;41.828;23.478;2023-04-24T06:36:01;24.25;;;21.85;;
9934;SDS011;5006;41.828;23.478;2023-04-24T06:37:08;23.05;;;20.75;;
9934;SDS011;5006;41.828;23.478;2023-04-24T06:38:13;19.98;;;17.88;;
9934;SDS011;5006;41.828;23.478;2023-04-24T06:39:20;23.20;;;20.80;;
9934;SDS011;5006;41.828;23.478;2023-04-24T06:40:25;22.75;;;20.50;;
9934;SDS011;5006;41.828;23.478;2023-04-24T06:41:31;21.20;;;19.08;;
9934;SDS011;5006;41.828;23.478;2023-04-24T06:42:37;20.23;;;18.13;;
9934;SDS011;5006;41.828;23.478;2023-04-24T06:43:46;18.77;;;16.92;;
9934;SDS011;5006;41.828;23.478;2023-04-24T06:44:53;19.67;;;17.63;;
9934;SDS011;5006;41.828;23.478;2023-04-24T06:45:58;22.30;;;20.02;;
9934;SDS011;5006;41.828;23.478;2023-04-24T06:47:05;21.27;;;18.73;;